Time;durP1;ratioP1;P1;durP2;ratioP2;P2;SDS_P1;SDS_P2;PMS_P1;PMS_P2;Temp;Humidity;BMP_temperature;BMP_pressure;BME280_temperature;BME280_humidity;BME280_pressure;Samples;Min_cycle;Max_cycle;Signal;HPM_P1;HPM_P2
2023/04/16 00:00:10;;;;;;;55.08;29.23;;;8.50;99.90;;;;;;4881293;28;89737;-32
2023/04/16 00:02:36;;;;;;;50.38;29.67;;;8.50;99.90;;;;;;4881700;28;89882;-30
2023/04/16 00:05:01;;;;;;;46.95;30.10;;;8.50;99.90;;;;;;4881402;28;89689;-32
2023/04/16 00:07:27;;;;;;;56.90;32.33;;;8.50;99.90;;;;;;4889815;23;89132;-34
2023/04/16 00:09:52;;;;;;;43.15;27.17;;;8.50;99.90;;;;;;4847183;28;89772;-31
2023/04/16 00:12:18;;;;;;;51.28;27.00;;;8.50;99.90;;;;;;4845421;28;89860;-35
2023/04/16 00:14:44;;;;;;;45.10;30.30;;;8.50;99.90;;;;;;4847195;28;89685;-31
2023/04/16 00:17:09;;;;;;;58.10;29.38;;;8.50;99.90;;;;;;4845565;28;91197;-30
2023/04/16 00:19:35;;;;;;;48.65;30.40;;;8.50;99.90;;;;;;4847412;28;90830;-30
2023/04/16 00:22:00;;;;;;;55.13;29.48;;;8.50;99.90;;;;;;4845235;28;89972;-32
2023/04/16 00:24:26;;;;;;;54.92;28.15;;;8.50;99.90;;;;;;4845159;28;88651;-35
2023/04/16 00:26:52;;;;;;;53.30;29.58;;;8.40;99.90;;;;;;4852992;28;90275;-31
2023/04/16 00:29:17;;;;;;;46.33;28.80;;;8.50;99.90;;;;;;4861225;28;90732;-35
2023/04/16 00:31:43;;;;;;;41.70;27.85;;;8.40;99.90;;;;;;4862154;28;90521;-31
2023/04/16 00:34:09;;;;;;;60.00;32.28;;;8.40;99.90;;;;;;4862257;28;89655;-31
2023/04/16 00:36:34;;;;;;;51.97;28.08;;;8.50;99.90;;;;;;4862470;28;90361;-30
2023/04/16 00:39:00;;;;;;;57.85;30.13;;;8.40;99.90;;;;;;4861423;28;89717;-32
2023/04/16 00:41:26;;;;;;;45.03;28.00;;;8.50;99.90;;;;;;4862396;28;90229;-35
2023/04/16 00:43:52;;;;;;;43.63;29.00;;;8.40;99.90;;;;;;4862369;28;89007;-34
2023/04/16 00:46:22;;;;;;;40.28;26.88;;;8.50;99.90;;;;;;4862511;28;90413;-32
2023/04/16 00:48:49;;;;;;;50.20;28.75;;;8.40;99.90;;;;;;4861098;28;89322;-31
2023/04/16 00:51:17;;;;;;;50.97;28.90;;;8.40;99.90;;;;;;4861809;28;90181;-33
2023/04/16 00:53:45;;;;;;;57.43;29.73;;;8.40;99.90;;;;;;4861954;28;90215;-31
2023/04/16 00:56:11;;;;;;;47.75;28.25;;;8.40;99.90;;;;;;4862272;28;91566;-32
2023/04/16 00:58:38;;;;;;;43.47;27.83;;;8.40;99.90;;;;;;4875462;28;89379;-30
2023/04/16 01:01:04;;;;;;;47.20;27.38;;;8.40;99.90;;;;;;4861199;28;89677;-34
2023/04/16 01:03:38;;;;;;;52.75;27.73;;;8.30;99.90;;;;;;4860397;28;88212;-30
2023/04/16 01:06:05;;;;;;;42.45;25.88;;;8.40;99.90;;;;;;4861202;28;91904;-35
2023/04/16 01:08:31;;;;;;;44.38;28.40;;;8.30;99.90;;;;;;4860528;28;89710;-34
2023/04/16 01:10:57;;;;;;;47.22;28.92;;;8.30;99.90;;;;;;4860529;28;89811;-34
2023/04/16 01:13:22;;;;;;;40.78;24.77;;;8.30;99.90;;;;;;4860196;28;89120;-35
2023/04/16 01:15:48;;;;;;;46.28;27.38;;;8.30;99.90;;;;;;4860753;28;90376;-31
2023/04/16 01:18:18;;;;;;;51.38;26.95;;;8.30;99.90;;;;;;4859803;28;90954;-35
2023/04/16 01:20:44;;;;;;;49.60;27.73;;;8.30;99.90;;;;;;4861015;28;90293;-33
2023/04/16 01:23:10;;;;;;;52.75;27.23;;;8.30;99.90;;;;;;4855375;28;89618;-33
2023/04/16 01:25:36;;;;;;;48.53;27.48;;;8.30;99.90;;;;;;4843310;28;91031;-33
2023/04/16 01:28:02;;;;;;;47.63;27.42;;;8.30;99.90;;;;;;4842552;28;89649;-32
2023/04/16 01:30:27;;;;;;;47.03;25.70;;;8.30;99.90;;;;;;4843412;28;90611;-31
2023/04/16 01:32:53;;;;;;;43.28;28.42;;;8.30;99.90;;;;;;4843482;28;89549;-31
2023/04/16 01:35:18;;;;;;;54.15;28.05;;;8.30;99.90;;;;;;4843763;28;90340;-34
2023/04/16 01:37:45;;;;;;;53.53;26.75;;;8.30;99.90;;;;;;4843152;28;90063;-31
2023/04/16 01:40:10;;;;;;;47.08;30.05;;;8.20;99.90;;;;;;4842609;28;88487;-33
2023/04/16 01:42:37;;;;;;;36.97;25.05;;;8.20;99.90;;;;;;4842022;28;90849;-32
2023/04/16 01:45:04;;;;;;;43.75;26.88;;;8.20;99.90;;;;;;4842976;28;90656;-33
2023/04/16 01:47:29;;;;;;;55.30;29.08;;;8.20;99.90;;;;;;4843632;28;89674;-31
2023/04/16 01:49:55;;;;;;;57.47;31.17;;;8.20;99.90;;;;;;4843535;28;90358;-33
2023/04/16 01:52:21;;;;;;;41.78;26.40;;;8.20;99.90;;;;;;4843893;28;90707;-32
2023/04/16 01:54:47;;;;;;;43.42;26.30;;;8.10;99.90;;;;;;4844867;28;89662;-30
2023/04/16 01:57:12;;;;;;;39.40;26.75;;;8.10;99.90;;;;;;4844295;28;89756;-32
2023/04/16 01:59:38;;;;;;;44.22;26.02;;;8.10;99.90;;;;;;4844080;28;89034;-29
2023/04/16 02:02:12;;;;;;;42.90;28.13;;;8.10;99.90;;;;;;4843064;28;89763;-32
2023/04/16 02:04:43;;;;;;;43.58;30.60;;;8.00;99.90;;;;;;4842967;28;88979;-33
2023/04/16 02:07:08;;;;;;;49.67;29.05;;;8.10;99.90;;;;;;4849826;28;90575;-35
2023/04/16 02:09:35;;;;;;;50.35;31.70;;;8.10;99.90;;;;;;4861110;28;91197;-32
2023/04/16 02:12:02;;;;;;;48.78;29.73;;;8.00;99.90;;;;;;4861229;28;88901;-31
2023/04/16 02:14:28;;;;;;;44.67;29.88;;;8.00;99.90;;;;;;4863649;28;90112;-32
2023/04/16 02:16:54;;;;;;;50.30;28.90;;;8.00;99.90;;;;;;4862656;28;89730;-31
2023/04/16 02:19:20;;;;;;;46.70;30.42;;;8.10;99.90;;;;;;4863417;28;89733;-31
2023/04/16 02:21:46;;;;;;;43.72;28.50;;;8.00;99.90;;;;;;4864768;28;90061;-31
2023/04/16 02:24:12;;;;;;;48.08;30.45;;;8.00;99.90;;;;;;4850959;28;89981;-33
2023/04/16 02:26:38;;;;;;;41.15;29.08;;;8.00;99.90;;;;;;4856490;28;89580;-32
2023/04/16 02:29:03;;;;;;;59.28;37.38;;;8.00;99.90;;;;;;4845795;28;90181;-34
2023/04/16 02:31:30;;;;;;;48.85;31.35;;;7.90;99.90;;;;;;4845435;28;89739;-31
2023/04/16 02:33:56;;;;;;;47.90;31.50;;;8.00;99.90;;;;;;4845953;28;90599;-33
2023/04/16 02:36:21;;;;;;;50.00;30.90;;;8.00;99.90;;;;;;4846536;28;90132;-32
2023/04/16 02:38:47;;;;;;;45.95;28.60;;;7.90;99.90;;;;;;4845234;28;89561;-34
2023/04/16 02:41:13;;;;;;;45.58;28.83;;;8.00;99.90;;;;;;4846446;28;89185;-34
2023/04/16 02:43:38;;;;;;;42.30;28.92;;;8.00;99.90;;;;;;4845765;28;90268;-30
2023/04/16 02:46:04;;;;;;;50.00;30.38;;;8.00;99.90;;;;;;4846210;28;89402;-32
2023/04/16 02:48:30;;;;;;;50.40;31.85;;;7.90;99.90;;;;;;4845763;28;89230;-33
2023/04/16 02:50:55;;;;;;;52.53;33.10;;;7.90;99.90;;;;;;4844871;28;90504;-33
2023/04/16 02:53:21;;;;;;;40.65;30.38;;;7.90;99.90;;;;;;4846954;28;89277;-31
2023/04/16 02:55:54;;;;;;;52.80;30.27;;;7.90;99.90;;;;;;4845771;28;90762;-30
2023/04/16 02:58:24;;;;;;;48.53;30.83;;;7.90;99.90;;;;;;4846521;28;90097;-34
2023/04/16 03:00:51;;;;;;;48.38;29.92;;;7.90;99.90;;;;;;4846410;28;88012;-33
2023/04/16 03:03:17;;;;;;;85.20;31.33;;;7.90;99.90;;;;;;4846537;28;89928;-33
2023/04/16 03:05:43;;;;;;;53.97;33.00;;;7.90;99.90;;;;;;4846197;28;89832;-32
2023/04/16 03:08:09;;;;;;;67.72;30.90;;;7.90;99.90;;;;;;4846072;28;89270;-30
2023/04/16 03:10:35;;;;;;;52.08;33.35;;;7.90;99.90;;;;;;4846609;28;89285;-34
2023/04/16 03:13:01;;;;;;;49.63;31.67;;;7.90;99.90;;;;;;4846928;28;90064;-30
2023/04/16 03:15:26;;;;;;;59.10;30.70;;;7.90;99.90;;;;;;4845499;28;89565;-30
2023/04/16 03:17:53;;;;;;;61.47;29.45;;;7.80;99.90;;;;;;4846560;28;89986;-31
2023/04/16 03:20:19;;;;;;;47.05;29.40;;;7.80;99.90;;;;;;4845846;28;89370;-31
2023/04/16 03:22:48;;;;;;;56.08;32.85;;;7.80;99.90;;;;;;4846057;28;90006;-34
2023/04/16 03:25:14;;;;;;;40.50;27.15;;;7.80;99.90;;;;;;4853608;28;89421;-32
2023/04/16 03:27:39;;;;;;;43.80;26.80;;;7.80;99.90;;;;;;4850269;28;89259;-33
2023/04/16 03:30:15;;;;;;;57.78;32.65;;;7.80;99.90;;;;;;4863759;28;89207;-29
2023/04/16 03:32:41;;;;;;;68.13;30.65;;;7.80;99.90;;;;;;4850503;28;90239;-33
2023/04/16 03:35:07;;;;;;;44.33;30.58;;;7.80;99.90;;;;;;4853163;28;89803;-32
2023/04/16 03:37:34;;;;;;;112.13;32.50;;;7.80;99.90;;;;;;4845006;28;90337;-34
2023/04/16 03:40:00;;;;;;;42.42;30.23;;;7.80;99.90;;;;;;4845102;28;89831;-33
2023/04/16 03:42:26;;;;;;;39.42;27.58;;;7.80;99.90;;;;;;4860944;28;90073;-32
2023/04/16 03:44:52;;;;;;;47.92;30.17;;;7.80;99.90;;;;;;4852102;28;90858;-32
2023/04/16 03:47:18;;;;;;;41.33;27.95;;;7.80;99.90;;;;;;4857161;28;90412;-32
2023/04/16 03:49:44;;;;;;;79.05;34.10;;;7.80;99.90;;;;;;4844401;28;88390;-33
2023/04/16 03:52:10;;;;;;;49.88;29.00;;;7.80;99.90;;;;;;4844064;28;89139;-34
2023/04/16 03:54:35;;;;;;;51.50;28.83;;;7.80;99.90;;;;;;4855306;28;89455;-30
2023/04/16 03:57:01;;;;;;;44.60;29.98;;;7.80;99.90;;;;;;4858048;28;89521;-31
2023/04/16 03:59:26;;;;;;;46.72;31.60;;;7.80;99.90;;;;;;4855017;28;88771;-30
2023/04/16 04:01:52;;;;;;;40.25;26.92;;;7.80;99.90;;;;;;4862814;28;90820;-33
2023/04/16 04:04:18;;;;;;;64.68;30.63;;;7.80;99.90;;;;;;4863422;28;89754;-33
2023/04/16 04:06:45;;;;;;;45.60;27.45;;;7.80;99.90;;;;;;4861174;28;89303;-33
2023/04/16 04:09:11;;;;;;;51.00;27.70;;;7.80;99.90;;;;;;4862011;28;90501;-34
2023/04/16 04:11:37;;;;;;;53.47;30.45;;;7.80;99.90;;;;;;4860830;28;90258;-32
2023/04/16 04:14:04;;;;;;;50.92;30.30;;;7.80;99.90;;;;;;4862315;28;89546;-32
2023/04/16 04:16:30;;;;;;;48.75;30.92;;;7.80;99.90;;;;;;4861850;28;89198;-32
2023/04/16 04:18:56;;;;;;;66.20;28.95;;;7.80;99.90;;;;;;4862172;28;87665;-31
2023/04/16 04:21:21;;;;;;;62.95;28.55;;;7.70;99.90;;;;;;4861790;28;90097;-30
2023/04/16 04:23:47;;;;;;;61.40;27.27;;;7.80;99.90;;;;;;4851594;28;89215;-31
2023/04/16 04:26:13;;;;;;;41.00;27.02;;;7.80;99.90;;;;;;4856992;28;90695;-32
2023/04/16 04:28:38;;;;;;;45.10;30.02;;;7.70;99.90;;;;;;4844212;28;89468;-35
2023/04/16 04:31:04;;;;;;;68.47;29.02;;;7.80;99.90;;;;;;4847809;28;90522;-32
2023/04/16 04:33:30;;;;;;;46.58;27.15;;;7.70;99.90;;;;;;4862129;28;90358;-32
2023/04/16 04:35:56;;;;;;;38.55;25.98;;;7.70;99.90;;;;;;4845401;28;90599;-34
2023/04/16 04:38:24;;;;;;;42.20;27.55;;;7.70;99.90;;;;;;4844670;28;89234;-34
2023/04/16 04:40:51;;;;;;;41.42;28.27;;;7.70;99.90;;;;;;4843911;28;89678;-32
2023/04/16 04:43:18;;;;;;;41.03;28.00;;;7.70;99.90;;;;;;4844477;28;90065;-31
2023/04/16 04:45:43;;;;;;;44.80;30.10;;;7.70;99.90;;;;;;4843824;28;89854;-33
2023/04/16 04:48:09;;;;;;;50.25;28.80;;;7.70;99.90;;;;;;4844380;28;87789;-32
2023/04/16 04:50:35;;;;;;;47.72;28.40;;;7.70;99.90;;;;;;4845120;28;89809;-34
2023/04/16 04:53:01;;;;;;;42.65;28.38;;;7.70;99.90;;;;;;4843350;28;89297;-30
2023/04/16 04:55:26;;;;;;;40.00;25.20;;;7.70;99.90;;;;;;4845085;28;90255;-34
2023/04/16 04:57:52;;;;;;;43.97;28.30;;;7.70;99.90;;;;;;4843544;28;89671;-34
2023/04/16 05:00:18;;;;;;;47.03;28.05;;;7.70;99.90;;;;;;4844417;28;90169;-33
2023/04/16 05:02:43;;;;;;;57.55;31.98;;;7.70;99.90;;;;;;4844608;28;90041;-33
2023/04/16 05:05:09;;;;;;;38.33;27.88;;;7.70;99.90;;;;;;4845033;28;89656;-31
2023/04/16 05:07:35;;;;;;;47.45;27.63;;;7.70;99.90;;;;;;4844783;28;89295;-34
2023/04/16 05:10:00;;;;;;;45.72;28.17;;;7.70;99.90;;;;;;4844658;28;91233;-33
2023/04/16 05:12:26;;;;;;;48.33;30.75;;;7.70;99.90;;;;;;4843942;28;89814;-34
2023/04/16 05:14:51;;;;;;;43.78;28.67;;;7.70;99.90;;;;;;4844978;28;90000;-32
2023/04/16 05:17:17;;;;;;;54.92;30.75;;;7.70;99.90;;;;;;4844641;28;89446;-34
2023/04/16 05:19:42;;;;;;;49.60;30.73;;;7.70;99.90;;;;;;4853909;28;90427;-31
2023/04/16 05:22:08;;;;;;;45.97;29.52;;;7.70;99.90;;;;;;4843293;28;91346;-32
2023/04/16 05:24:34;;;;;;;63.22;30.25;;;7.70;99.90;;;;;;4847983;28;90677;-30
2023/04/16 05:27:00;;;;;;;59.83;33.05;;;7.70;99.90;;;;;;4861746;28;89180;-34
2023/04/16 05:29:26;;;;;;;47.33;27.17;;;7.70;99.90;;;;;;4861333;28;90855;-32
2023/04/16 05:31:51;;;;;;;53.50;28.88;;;7.70;99.90;;;;;;4861436;28;89963;-34
2023/04/16 05:34:17;;;;;;;41.47;26.20;;;7.70;99.90;;;;;;4860894;28;89667;-31
2023/04/16 05:36:43;;;;;;;43.67;28.83;;;7.70;99.90;;;;;;4862488;28;89567;-31
2023/04/16 05:39:09;;;;;;;50.85;24.65;;;7.70;99.90;;;;;;4860941;28;88397;-31
2023/04/16 05:41:34;;;;;;;45.85;30.08;;;7.70;99.90;;;;;;4861279;28;89988;-33
2023/04/16 05:44:00;;;;;;;51.30;28.73;;;7.70;99.90;;;;;;4860591;28;90295;-32
2023/04/16 05:46:26;;;;;;;46.42;28.20;;;7.70;99.90;;;;;;4860983;28;89399;-33
2023/04/16 05:48:51;;;;;;;46.38;26.50;;;7.70;99.90;;;;;;4863125;28;90041;-33
2023/04/16 05:51:17;;;;;;;40.28;26.48;;;7.70;99.90;;;;;;4864501;28;89205;-31
2023/04/16 05:53:42;;;;;;;45.05;26.33;;;7.80;99.90;;;;;;4864132;28;90083;-35
2023/04/16 05:56:08;;;;;;;43.67;25.02;;;7.80;99.90;;;;;;4864661;28;88849;-29
2023/04/16 05:58:34;;;;;;;41.72;27.15;;;7.80;99.90;;;;;;4864057;28;89343;-32
2023/04/16 06:01:00;;;;;;;47.28;27.15;;;7.80;99.90;;;;;;4865114;28;89843;-32
2023/04/16 06:03:26;;;;;;;47.53;27.80;;;7.90;99.90;;;;;;4851696;28;89835;-31
2023/04/16 06:05:52;;;;;;;47.00;27.73;;;7.90;99.90;;;;;;4865464;28;88922;-33
2023/04/16 06:08:18;;;;;;;44.10;25.23;;;7.90;99.90;;;;;;4863489;28;88844;-33
2023/04/16 06:10:46;;;;;;;46.30;28.73;;;7.90;99.90;;;;;;4863856;28;90740;-31
2023/04/16 06:13:11;;;;;;;46.45;25.23;;;7.90;99.90;;;;;;4864077;28;89898;-34
2023/04/16 06:15:37;;;;;;;49.40;29.75;;;7.90;99.90;;;;;;4864376;28;89197;-33
2023/04/16 06:18:03;;;;;;;43.40;28.10;;;7.90;99.90;;;;;;4863862;28;90351;-33
2023/04/16 06:20:29;;;;;;;45.70;28.45;;;8.00;99.90;;;;;;4854441;28;89922;-32
2023/04/16 06:22:55;;;;;;;47.95;28.10;;;8.00;99.90;;;;;;4845059;28;89377;-31
2023/04/16 06:25:20;;;;;;;45.53;28.15;;;8.00;99.90;;;;;;4845210;28;89507;-31
2023/04/16 06:27:46;;;;;;;40.67;24.27;;;8.00;99.90;;;;;;4849735;28;90175;-31
2023/04/16 06:30:13;;;;;;;43.15;26.65;;;8.10;99.90;;;;;;4854441;28;89514;-34
2023/04/16 06:32:39;;;;;;;47.55;25.23;;;8.10;99.90;;;;;;4846117;28;90782;-31
2023/04/16 06:35:05;;;;;;;43.05;27.00;;;8.10;99.90;;;;;;4845847;28;89209;-33
2023/04/16 06:37:31;;;;;;;39.22;26.27;;;8.20;99.90;;;;;;4846893;28;90413;-32
2023/04/16 06:39:57;;;;;;;46.97;27.52;;;8.30;99.90;;;;;;4846095;28;89705;-31
2023/04/16 06:42:22;;;;;;;54.20;28.85;;;8.30;99.90;;;;;;4846534;28;88982;-35
2023/04/16 06:44:48;;;;;;;45.83;25.95;;;8.30;99.90;;;;;;4846286;28;88813;-33
2023/04/16 06:47:15;;;;;;;49.50;27.25;;;8.40;99.90;;;;;;4844969;28;88831;-30
2023/04/16 06:49:40;;;;;;;41.80;27.40;;;8.40;99.90;;;;;;4854367;28;89543;-32
2023/04/16 06:52:06;;;;;;;44.03;25.58;;;8.50;99.90;;;;;;4853699;28;90097;-30
2023/04/16 06:54:32;;;;;;;44.83;26.50;;;8.50;99.90;;;;;;4854713;28;89120;-35
2023/04/16 06:56:57;;;;;;;44.55;24.55;;;8.50;99.90;;;;;;4852839;28;90181;-32
2023/04/16 06:59:23;;;;;;;47.58;27.92;;;8.50;99.90;;;;;;4852261;28;91042;-29
2023/04/16 07:01:48;;;;;;;46.33;28.20;;;8.60;99.90;;;;;;4853388;28;91041;-33
2023/04/16 07:04:14;;;;;;;46.63;26.73;;;8.60;99.90;;;;;;4853828;28;89672;-33
2023/04/16 07:06:40;;;;;;;50.00;25.15;;;8.60;99.90;;;;;;4852698;28;90109;-35
2023/04/16 07:09:05;;;;;;;36.70;23.13;;;8.60;99.90;;;;;;4847696;28;90193;-31
2023/04/16 07:11:31;;;;;;;40.13;25.85;;;8.60;99.90;;;;;;4849999;28;89886;-35
2023/04/16 07:13:57;;;;;;;35.95;23.35;;;8.60;99.90;;;;;;4848267;28;87782;-31
2023/04/16 07:16:23;;;;;;;41.40;24.10;;;8.60;99.90;;;;;;4850410;28;90381;-33
2023/04/16 07:18:49;;;;;;;42.72;26.92;;;8.60;99.90;;;;;;4846428;28;89235;-32
2023/04/16 07:21:14;;;;;;;39.00;26.40;;;8.60;99.90;;;;;;4852503;28;89035;-33
2023/04/16 07:23:40;;;;;;;42.25;27.02;;;8.60;99.90;;;;;;4852703;28;90070;-34
2023/04/16 07:26:06;;;;;;;42.42;27.08;;;8.60;99.90;;;;;;4845335;28;90108;-32
2023/04/16 07:28:31;;;;;;;49.30;25.80;;;8.60;99.90;;;;;;4845252;28;89698;-33
2023/04/16 07:30:57;;;;;;;46.42;28.10;;;8.60;99.90;;;;;;4845538;28;90225;-32
2023/04/16 07:33:23;;;;;;;42.10;26.30;;;8.60;99.90;;;;;;4845415;28;88506;-31
2023/04/16 07:35:50;;;;;;;43.58;24.55;;;8.70;99.90;;;;;;4845679;28;90349;-32
2023/04/16 07:38:15;;;;;;;35.55;24.30;;;8.70;99.90;;;;;;4846013;28;89422;-31
2023/04/16 07:40:41;;;;;;;37.83;25.52;;;8.80;99.90;;;;;;4846633;28;89862;-32
2023/04/16 07:43:07;;;;;;;44.95;27.90;;;8.80;99.90;;;;;;4846413;28;89287;-32
2023/04/16 07:45:32;;;;;;;45.28;28.00;;;8.90;99.90;;;;;;4846163;28;90411;-34
2023/04/16 07:47:58;;;;;;;39.63;27.83;;;8.90;99.90;;;;;;4844267;28;90611;-32
2023/04/16 07:50:24;;;;;;;51.03;27.73;;;9.00;99.90;;;;;;4846026;28;91531;-34
2023/04/16 07:52:50;;;;;;;42.40;26.90;;;9.00;99.90;;;;;;4844758;28;88115;-31
2023/04/16 07:55:15;;;;;;;39.55;28.67;;;9.20;99.90;;;;;;4846093;28;90176;-34
2023/04/16 07:57:41;;;;;;;42.78;26.55;;;9.30;99.90;;;;;;4845293;28;89333;-31
2023/04/16 08:00:07;;;;;;;47.15;28.40;;;9.30;99.90;;;;;;4846562;28;89887;-31
2023/04/16 08:02:33;;;;;;;37.10;24.63;;;9.40;99.90;;;;;;4846117;28;89147;-30
2023/04/16 08:04:59;;;;;;;35.92;24.88;;;9.50;99.90;;;;;;4845870;28;90422;-31
2023/04/16 08:07:26;;;;;;;43.13;26.90;;;9.60;99.90;;;;;;4845333;28;89129;-30
2023/04/16 08:09:52;;;;;;;51.47;29.10;;;9.60;99.90;;;;;;4844104;28;89929;-33
2023/04/16 08:12:18;;;;;;;37.65;23.15;;;9.70;99.90;;;;;;4844285;28;89512;-33
2023/04/16 08:14:44;;;;;;;31.08;25.48;;;9.70;99.90;;;;;;4855491;28;89134;-32
2023/04/16 08:17:14;;;;;;;33.08;24.05;;;9.80;99.90;;;;;;4849078;28;89532;-31
2023/04/16 08:19:41;;;;;;;34.13;24.48;;;9.80;99.90;;;;;;4850885;28;88991;-33
2023/04/16 08:22:06;;;;;;;33.30;22.95;;;9.90;99.90;;;;;;4852767;28;90362;-31
2023/04/16 08:24:32;;;;;;;38.30;26.33;;;9.90;99.90;;;;;;4844683;28;90158;-34
2023/04/16 08:26:57;;;;;;;40.95;24.48;;;10.00;99.90;;;;;;4842805;28;88578;-33
2023/04/16 08:29:25;;;;;;;36.97;24.38;;;10.00;99.90;;;;;;4846386;28;89381;-31
2023/04/16 08:31:51;;;;;;;37.53;24.02;;;10.10;99.90;;;;;;4843816;28;89375;-34
2023/04/16 08:34:17;;;;;;;37.15;24.60;;;10.20;99.90;;;;;;4845362;28;89538;-34
2023/04/16 08:36:42;;;;;;;40.67;26.83;;;10.30;99.90;;;;;;4846925;28;90284;-32
2023/04/16 08:39:08;;;;;;;32.85;23.90;;;10.30;99.90;;;;;;4849873;28;91546;-32
2023/04/16 08:41:36;;;;;;;39.38;25.08;;;10.40;99.90;;;;;;4853154;28;88204;-32
2023/04/16 08:44:07;;;;;;;48.88;26.30;;;10.60;99.90;;;;;;4843011;28;90270;-31
2023/04/16 08:46:36;;;;;;;38.90;24.33;;;10.70;99.90;;;;;;4853318;28;89915;-33
2023/04/16 08:49:05;;;;;;;45.47;25.63;;;10.80;99.90;;;;;;4841902;28;89609;-35
2023/04/16 08:51:34;;;;;;;38.28;24.65;;;10.90;99.90;;;;;;4842055;28;88927;-32
2023/04/16 08:54:07;;;;;;;38.70;24.63;;;11.00;99.90;;;;;;4849202;28;89887;-32
2023/04/16 08:56:35;;;;;;;29.80;22.38;;;11.20;99.90;;;;;;4853098;28;89434;-31
2023/04/16 08:59:04;;;;;;;35.90;23.45;;;11.40;99.90;;;;;;4851844;28;89754;-33
2023/04/16 09:01:34;;;;;;;29.23;21.17;;;11.60;99.90;;;;;;4854928;28;88944;-32
2023/04/16 09:04:00;;;;;;;35.60;22.20;;;11.60;99.90;;;;;;4856595;28;90831;-35
2023/04/16 09:06:30;;;;;;;31.92;21.20;;;11.70;99.90;;;;;;4854088;28;89678;-32
2023/04/16 09:08:58;;;;;;;35.90;22.10;;;11.70;99.90;;;;;;4837304;28;89238;-34
2023/04/16 09:11:25;;;;;;;32.22;21.02;;;11.80;99.90;;;;;;4853567;28;88049;-34
2023/04/16 09:13:51;;;;;;;32.25;19.13;;;11.90;99.90;;;;;;4856096;28;90038;-32
2023/04/16 09:16:17;;;;;;;26.50;20.42;;;12.10;99.90;;;;;;4851604;28;89742;-33
2023/04/16 09:18:42;;;;;;;27.23;19.40;;;12.00;99.90;;;;;;4856223;28;89963;-31
2023/04/16 09:21:10;;;;;;;31.83;21.42;;;12.10;99.90;;;;;;4852796;28;89254;-32
2023/04/16 09:23:37;;;;;;;28.25;19.13;;;12.10;99.90;;;;;;4852813;28;90914;-33
2023/04/16 09:26:03;;;;;;;28.87;21.63;;;11.90;99.90;;;;;;4846926;28;90616;-31
2023/04/16 09:28:44;;;;;;;24.67;19.00;;;11.90;99.90;;;;;;4862939;28;90953;-33
2023/04/16 09:31:17;;;;;;;27.25;16.60;;;12.00;99.90;;;;;;4861813;28;89019;-32
2023/04/16 09:33:43;;;;;;;29.20;18.88;;;12.00;99.90;;;;;;4862381;28;89784;-32
2023/04/16 09:36:09;;;;;;;28.75;19.30;;;12.10;99.90;;;;;;4862214;28;91679;-33
2023/04/16 09:38:48;;;;;;;32.40;21.00;;;12.20;99.90;;;;;;4862211;28;90298;-33
2023/04/16 09:41:16;;;;;;;22.88;16.63;;;12.10;99.90;;;;;;4842437;28;88137;-32
2023/04/16 09:43:58;;;;;;;29.75;18.25;;;12.10;99.90;;;;;;4862170;28;90544;-29
2023/04/16 09:46:35;;;;;;;24.45;17.13;;;12.30;99.90;;;;;;4861949;28;89796;-33
2023/04/16 09:49:14;;;;;;;30.35;20.05;;;12.40;99.90;;;;;;4861388;28;89245;-33
2023/04/16 09:51:44;;;;;;;26.98;20.40;;;12.40;99.90;;;;;;4862226;28;89683;-31
2023/04/16 09:54:10;;;;;;;23.85;17.98;;;12.30;99.90;;;;;;4863420;28;90499;-32
2023/04/16 09:56:44;;;;;;;21.42;18.10;;;12.50;99.90;;;;;;4860548;28;88693;-32
2023/04/16 09:59:20;;;;;;;25.90;20.52;;;12.60;99.90;;;;;;4856505;28;89531;-33
2023/04/16 10:01:46;;;;;;;30.63;19.67;;;12.80;99.90;;;;;;4852566;28;89419;-33
2023/04/16 10:04:11;;;;;;;34.47;20.83;;;12.90;99.90;;;;;;4854984;28;89857;-35
2023/04/16 10:06:37;;;;;;;29.73;21.52;;;12.90;99.90;;;;;;4852457;28;89303;-30
2023/04/16 10:09:06;;;;;;;26.33;18.85;;;12.80;99.90;;;;;;4855323;28;89689;-34
2023/04/16 10:11:32;;;;;;;30.75;17.92;;;12.90;99.90;;;;;;4851280;28;89604;-33
2023/04/16 10:13:58;;;;;;;27.27;19.15;;;13.00;99.90;;;;;;4853531;28;90352;-34
2023/04/16 10:16:24;;;;;;;28.85;20.15;;;13.00;99.90;;;;;;4852728;28;90496;-34
2023/04/16 10:18:50;;;;;;;24.70;19.58;;;13.10;99.90;;;;;;4859195;28;90398;-32
2023/04/16 10:21:16;;;;;;;20.80;18.08;;;13.20;99.90;;;;;;4858008;28;89624;-33
2023/04/16 10:23:42;;;;;;;24.35;19.55;;;13.10;99.90;;;;;;4850584;28;89892;-30
2023/04/16 10:26:08;;;;;;;31.35;19.20;;;13.20;99.90;;;;;;4843366;28;88415;-34
2023/04/16 10:28:35;;;;;;;23.10;19.10;;;13.30;99.90;;;;;;4844135;28;89376;-32
2023/04/16 10:31:06;;;;;;;24.38;19.70;;;13.40;99.90;;;;;;4844204;28;88020;-33
2023/04/16 10:33:34;;;;;;;25.10;20.50;;;13.40;99.90;;;;;;4841821;28;90682;-33
2023/04/16 10:36:08;;;;;;;28.17;21.45;;;13.40;99.90;;;;;;4843058;28;89670;-32
2023/04/16 10:38:36;;;;;;;24.23;19.42;;;13.40;99.90;;;;;;4847217;28;89875;-31
2023/04/16 10:41:03;;;;;;;;;;;13.50;99.90;;;;;;4852957;28;90365;-32
2023/04/16 10:43:30;;;;;;;26.05;18.63;;;13.60;99.90;;;;;;4858779;28;90167;-30
2023/04/16 10:45:56;;;;;;;35.95;20.95;;;13.70;99.90;;;;;;4851946;28;88779;-34
2023/04/16 10:48:24;;;;;;;28.08;21.73;;;13.80;99.90;;;;;;4855551;28;89788;-32
2023/04/16 10:50:56;;;;;;;;;;;13.70;99.90;;;;;;4852312;28;89014;-35
2023/04/16 10:53:26;;;;;;;29.88;18.67;;;13.80;99.90;;;;;;4857897;28;90072;-31
2023/04/16 10:56:10;;;;;;;27.85;20.67;;;13.70;99.90;;;;;;4853741;28;90218;-31
2023/04/16 10:58:36;;;;;;;25.17;18.55;;;13.80;99.90;;;;;;4851710;28;89417;-32
2023/04/16 11:01:12;;;;;;;27.58;20.08;;;13.70;99.90;;;;;;4849518;28;89072;-33
2023/04/16 11:03:47;;;;;;;28.48;19.33;;;13.90;99.90;;;;;;4847445;28;89753;-33
2023/04/16 11:06:25;;;;;;;28.92;21.30;;;14.00;99.90;;;;;;4851467;28;90346;-33
2023/04/16 11:08:51;;;;;;;28.02;21.15;;;14.00;99.90;;;;;;4846336;28;90061;-35
2023/04/16 11:11:18;;;;;;;26.40;20.83;;;14.10;99.90;;;;;;4845696;28;90042;-34
2023/04/16 11:13:44;;;;;;;24.73;17.10;;;14.30;99.90;;;;;;4843194;28;90881;-33
2023/04/16 11:16:14;;;;;;;26.73;20.67;;;14.20;99.90;;;;;;4845113;28;90428;-34
2023/04/16 11:18:40;;;;;;;29.95;21.15;;;14.10;99.90;;;;;;4843874;28;89662;-34
2023/04/16 11:21:11;;;;;;;25.88;22.83;;;14.30;99.90;;;;;;4843644;28;89950;-31
2023/04/16 11:23:48;;;;;;;28.25;20.17;;;14.30;99.90;;;;;;4843696;28;89842;-33
2023/04/16 11:26:25;;;;;;;24.42;19.05;;;14.30;99.90;;;;;;4859418;28;89388;-31
2023/04/16 11:28:51;;;;;;;28.02;20.55;;;14.30;99.90;;;;;;4860303;28;89501;-31
2023/04/16 11:31:16;;;;;;;28.08;22.02;;;14.30;99.90;;;;;;4860286;28;90060;-33
2023/04/16 11:33:42;;;;;;;31.48;21.50;;;14.40;99.90;;;;;;4860941;28;89912;-31
2023/04/16 11:36:08;;;;;;;27.27;19.55;;;14.30;99.90;;;;;;4860109;28;89557;-35
2023/04/16 11:38:36;;;;;;;24.27;20.73;;;14.30;99.90;;;;;;4848782;28;89929;-31
2023/04/16 11:41:02;;;;;;;24.65;19.77;;;14.40;99.90;;;;;;4831171;28;89723;-32
2023/04/16 11:43:28;;;;;;;27.48;21.13;;;14.50;99.90;;;;;;4843348;28;90812;-33
2023/04/16 11:45:59;;;;;;;35.33;21.92;;;14.50;99.90;;;;;;4841997;28;90058;-33
2023/04/16 11:48:25;;;;;;;27.55;20.67;;;14.40;99.90;;;;;;4841903;28;89222;-33
2023/04/16 11:50:56;;;;;;;27.20;21.10;;;14.20;99.90;;;;;;4842507;28;90228;-30
2023/04/16 11:53:21;;;;;;;24.60;20.35;;;14.30;99.90;;;;;;4843157;28;90509;-34
2023/04/16 11:55:47;;;;;;;25.05;19.80;;;14.50;99.90;;;;;;4841674;28;90893;-32
2023/04/16 11:58:16;;;;;;;27.65;21.80;;;14.60;99.90;;;;;;4843290;28;90878;-34
2023/04/16 12:00:42;;;;;;;26.60;20.45;;;14.80;99.90;;;;;;4842986;28;88410;-33
2023/04/16 12:03:07;;;;;;;25.10;21.25;;;14.90;99.90;;;;;;4842229;28;90849;-34
2023/04/16 12:05:36;;;;;;;21.67;19.02;;;15.00;99.90;;;;;;4841703;28;89794;-31
2023/04/16 12:08:11;;;;;;;25.13;21.25;;;15.00;99.90;;;;;;4902736;23;89874;-34
2023/04/16 12:10:52;;;;;;;22.67;20.23;;;14.90;99.90;;;;;;4870272;28;88309;-33
2023/04/16 12:13:18;;;;;;;26.88;21.08;;;14.80;99.90;;;;;;4879256;28;90724;-32
2023/04/16 12:15:45;;;;;;;26.92;20.73;;;14.70;99.90;;;;;;4875143;28;89413;-32
2023/04/16 12:18:10;;;;;;;28.80;19.23;;;14.70;99.90;;;;;;4880025;28;90009;-34
2023/04/16 12:20:42;;;;;;;26.45;22.30;;;14.60;99.90;;;;;;4875004;28;89924;-32
2023/04/16 12:23:08;;;;;;;23.70;20.35;;;14.60;99.90;;;;;;4880173;28;90347;-35
2023/04/16 12:25:35;;;;;;;23.48;19.38;;;14.60;99.90;;;;;;4878682;28;89809;-33
2023/04/16 12:28:01;;;;;;;27.00;20.17;;;14.50;99.90;;;;;;4879055;28;89833;-34
2023/04/16 12:30:27;;;;;;;26.80;19.50;;;14.60;99.90;;;;;;4879155;28;89134;-33